createdAt,value
2023-03-05T00:00:15.804Z,14
2023-03-05T00:05:15.804Z,13
2023-03-05T00:10:15.781Z,12
2023-03-05T00:15:15.746Z,11
2023-03-05T00:20:15.785Z,14
2023-03-05T00:25:15.922Z,13
2023-03-05T00:30:15.746Z,13
2023-03-05T00:35:15.826Z,11
2023-03-05T00:40:15.889Z,12
2023-03-05T00:45:15.818Z,12
2023-03-05T00:50:15.861Z,10
2023-03-05T00:55:15.881Z,12
2023-03-05T01:00:16.068Z,11
2023-03-05T01:05:16.090Z,12
2023-03-05T01:10:15.879Z,10
2023-03-05T01:15:15.922Z,10
2023-03-05T01:20:15.905Z,12
2023-03-05T01:25:15.872Z,11
2023-03-05T01:30:15.928Z,12
2023-03-05T01:35:16.070Z,12
2023-03-05T01:40:15.909Z,10
2023-03-05T01:45:16.073Z,12
2023-03-05T01:50:15.951Z,12
2023-03-05T01:55:16.118Z,11
2023-03-05T02:00:17.065Z,13
2023-03-05T02:05:17.029Z,12
2023-03-05T02:10:17.074Z,10
2023-03-05T02:15:16.922Z,10
2023-03-05T02:20:16.971Z,10
2023-03-05T02:25:16.990Z,9
2023-03-05T02:30:17.012Z,10
2023-03-05T02:35:17.250Z,11
2023-03-05T02:40:17.266Z,9
2023-03-05T02:45:17.238Z,11
2023-03-05T02:50:17.088Z,11
2023-03-05T02:55:17.084Z,10
2023-03-05T03:00:17.161Z,11
2023-03-05T03:05:17.085Z,11
2023-03-05T03:10:17.246Z,10
2023-03-05T03:15:17.227Z,10
2023-03-05T03:20:17.377Z,9
2023-03-05T03:25:17.340Z,10
2023-03-05T03:30:17.225Z,7
2023-03-05T03:35:17.309Z,7
2023-03-05T03:40:17.369Z,10
2023-03-05T03:45:17.182Z,8
2023-03-05T03:50:17.259Z,7
2023-03-05T03:55:17.330Z,7
2023-03-05T04:00:17.258Z,7
2023-03-05T04:05:17.279Z,4
2023-03-05T04:10:17.444Z,6
2023-03-05T04:15:17.194Z,5
2023-03-05T04:20:17.419Z,6
2023-03-05T04:25:17.307Z,4
2023-03-05T04:30:17.409Z,4
2023-03-05T04:35:17.509Z,4
2023-03-05T04:40:17.320Z,6
2023-03-05T04:45:17.304Z,7
2023-03-05T04:50:17.372Z,7
2023-03-05T04:55:17.410Z,5
2023-03-05T05:00:16.538Z,6
2023-03-05T05:05:16.388Z,4
2023-03-05T05:10:16.439Z,6
2023-03-05T05:15:16.422Z,6
2023-03-05T05:20:16.556Z,4
2023-03-05T05:25:16.368Z,4
2023-03-05T05:30:16.451Z,5
2023-03-05T05:35:16.675Z,4
2023-03-05T05:40:16.438Z,3
2023-03-05T05:45:16.584Z,6
2023-03-05T05:50:16.488Z,5
2023-03-05T05:55:16.597Z,4
2023-03-05T06:00:15.457Z,3
2023-03-05T06:05:15.641Z,4
2023-03-05T06:10:15.667Z,4
2023-03-05T06:15:15.474Z,4
2023-03-05T06:20:15.533Z,5
2023-03-05T06:25:15.509Z,6
2023-03-05T06:30:15.644Z,6
2023-03-05T06:35:15.712Z,7
2023-03-05T06:40:15.561Z,8
2023-03-05T06:45:15.711Z,6
2023-03-05T06:50:15.593Z,8
2023-03-05T06:55:15.789Z,6
2023-03-05T07:00:15.702Z,7
2023-03-05T07:05:15.655Z,6
2023-03-05T07:10:15.702Z,6
2023-03-05T07:15:15.758Z,6
2023-03-05T07:20:15.706Z,4
2023-03-05T07:25:15.796Z,4
2023-03-05T07:30:15.726Z,5
2023-03-05T07:35:15.890Z,7
2023-03-05T07:40:15.842Z,8
2023-03-05T07:45:15.791Z,8
2023-03-05T07:50:15.772Z,8
2023-03-05T07:55:15.769Z,7
2023-03-05T08:00:15.770Z,5
2023-03-05T08:05:15.828Z,4
2023-03-05T08:10:15.821Z,4
2023-03-05T08:15:15.824Z,6
2023-03-05T08:20:15.814Z,3
2023-03-05T08:25:15.855Z,4
2023-03-05T08:30:15.948Z,3
2023-03-05T08:35:15.940Z,3
2023-03-05T08:40:15.871Z,4
2023-03-05T08:45:15.831Z,3
2023-03-05T08:50:16.030Z,4
2023-03-05T08:55:15.875Z,5
2023-03-05T09:00:16.008Z,3
2023-03-05T09:05:15.928Z,3
2023-03-05T09:10:16.083Z,2
2023-03-05T09:15:16.086Z,1
2023-03-05T09:20:15.945Z,2
2023-03-05T09:25:16.018Z,2
2023-03-05T09:30:16.081Z,2
2023-03-05T09:35:15.968Z,3
2023-03-05T09:40:16.089Z,3
2023-03-05T09:45:16.006Z,2
2023-03-05T09:50:16.040Z,2
2023-03-05T09:55:15.988Z,2
2023-03-05T10:00:16.072Z,2
2023-03-05T10:05:16.046Z,2
2023-03-05T10:10:16.137Z,2
2023-03-05T10:15:16.215Z,1
2023-03-05T10:20:16.093Z,1
2023-03-05T10:25:16.071Z,1
2023-03-05T10:30:16.123Z,1
2023-03-05T10:35:16.208Z,0
2023-03-05T10:40:16.154Z,0
2023-03-05T10:45:16.127Z,1
2023-03-05T10:50:16.687Z,2
2023-03-05T10:55:16.137Z,1
2023-03-05T11:00:16.116Z,1
2023-03-05T11:05:16.221Z,0
2023-03-05T11:10:16.217Z,0
2023-03-05T11:15:16.208Z,0
2023-03-05T11:20:16.205Z,1
2023-03-05T11:25:16.317Z,1
2023-03-05T11:30:16.222Z,1
2023-03-05T11:35:16.262Z,2
2023-03-05T11:40:16.286Z,2
2023-03-05T11:45:16.283Z,2
2023-03-05T11:50:16.419Z,2
2023-03-05T11:55:16.247Z,2
2023-03-05T12:00:16.432Z,2
2023-03-05T12:05:16.384Z,1
2023-03-05T12:10:16.402Z,2
2023-03-05T12:15:16.387Z,2
2023-03-05T12:20:16.474Z,2
2023-03-05T12:25:16.462Z,3
2023-03-05T12:30:16.594Z,3
2023-03-05T12:35:16.356Z,3
2023-03-05T12:40:16.360Z,3
2023-03-05T12:45:16.513Z,3
2023-03-05T12:50:16.437Z,3
2023-03-05T12:55:16.513Z,2
2023-03-05T13:00:16.464Z,5
2023-03-05T13:05:16.633Z,6
2023-03-05T13:10:16.562Z,6
2023-03-05T13:15:16.480Z,4
2023-03-05T13:20:16.474Z,5
2023-03-05T13:25:16.678Z,5
2023-03-05T13:30:16.609Z,6
2023-03-05T13:35:16.608Z,5
2023-03-05T13:40:16.913Z,4
2023-03-05T13:45:16.956Z,5
2023-03-05T13:50:16.898Z,6
2023-03-05T13:55:16.986Z,6
2023-03-05T14:00:16.697Z,5
2023-03-05T14:05:16.599Z,7
2023-03-05T14:10:16.893Z,7
2023-03-05T14:15:16.883Z,6
2023-03-05T14:20:16.815Z,6
2023-03-05T14:25:16.604Z,8
2023-03-05T14:30:16.614Z,9
2023-03-05T14:35:16.897Z,9
2023-03-05T14:40:16.621Z,9
2023-03-05T14:45:16.723Z,11
2023-03-05T14:50:16.748Z,9
2023-03-05T14:55:16.758Z,11
2023-03-05T15:00:16.639Z,11
2023-03-05T15:05:16.711Z,10
2023-03-05T15:10:16.826Z,11
2023-03-05T15:15:16.767Z,11
2023-03-05T15:20:16.715Z,13
2023-03-05T15:25:16.809Z,13
2023-03-05T15:30:16.729Z,12
2023-03-05T15:35:16.797Z,12
2023-03-05T15:40:16.729Z,12
2023-03-05T15:45:16.796Z,12
2023-03-05T15:50:16.846Z,12
2023-03-05T15:55:16.925Z,12
2023-03-05T16:00:16.845Z,13
2023-03-05T16:05:16.820Z,13
2023-03-05T16:10:16.794Z,12
2023-03-05T16:15:17.028Z,11
2023-03-05T16:20:16.921Z,12
2023-03-05T16:25:16.889Z,14
2023-03-05T16:30:16.958Z,12
2023-03-05T16:35:17.004Z,12
2023-03-05T16:40:17.035Z,14
2023-03-05T16:45:16.947Z,12
2023-03-05T16:50:16.924Z,14
2023-03-05T16:55:17.008Z,14
2023-03-05T17:00:17.280Z,13
2023-03-05T17:05:17.008Z,15
2023-03-05T17:10:16.964Z,11
2023-03-05T17:15:17.055Z,13
2023-03-05T17:20:17.017Z,15
2023-03-05T17:25:17.174Z,13
2023-03-05T17:30:17.139Z,15
2023-03-05T17:35:17.047Z,15
2023-03-05T17:40:17.179Z,14
2023-03-05T17:45:17.198Z,14
2023-03-05T17:50:17.080Z,12
2023-03-05T17:55:17.196Z,15
2023-03-05T18:00:17.093Z,13
2023-03-05T18:05:17.095Z,13
2023-03-05T18:10:17.152Z,15
2023-03-05T18:15:17.277Z,15
2023-03-05T18:20:17.164Z,13
2023-03-05T18:25:17.162Z,11
2023-03-05T18:30:17.210Z,13
2023-03-05T18:35:17.127Z,10
2023-03-05T18:40:19.359Z,10
2023-03-05T18:45:17.256Z,12
2023-03-05T18:50:17.219Z,16
2023-03-05T18:55:17.259Z,15
2023-03-05T19:00:17.295Z,17
2023-03-05T19:05:17.208Z,13
2023-03-05T19:10:17.253Z,17
2023-03-05T19:15:17.310Z,16
2023-03-05T19:20:17.271Z,15
2023-03-05T19:25:17.353Z,16
2023-03-05T19:30:17.278Z,16
2023-03-05T19:35:17.428Z,14
2023-03-05T19:40:17.413Z,12
2023-03-05T19:45:17.306Z,15
2023-03-05T19:50:17.479Z,15
2023-03-05T19:55:17.314Z,15
2023-03-05T20:00:17.344Z,13
2023-03-05T20:05:17.324Z,15
2023-03-05T20:10:17.392Z,15
2023-03-05T20:15:15.434Z,17
2023-03-05T20:20:15.434Z,19
2023-03-05T20:25:15.475Z,18
2023-03-05T20:30:15.453Z,16
2023-03-05T20:35:15.476Z,17
2023-03-05T20:40:15.481Z,16
2023-03-05T20:45:15.508Z,16
2023-03-05T20:50:15.586Z,16
2023-03-05T20:55:15.628Z,17
2023-03-05T21:00:15.659Z,14
2023-03-05T21:05:15.738Z,17
2023-03-05T21:10:15.617Z,18
2023-03-05T21:15:15.714Z,19
2023-03-05T21:20:15.593Z,17
2023-03-05T21:25:15.535Z,19
2023-03-05T21:30:15.719Z,18
2023-03-05T21:35:15.559Z,17
2023-03-05T21:40:15.612Z,17
2023-03-05T21:45:15.553Z,19
2023-03-05T21:50:15.618Z,17
2023-03-05T21:55:15.545Z,18
2023-03-05T22:00:15.628Z,17
2023-03-05T22:05:15.596Z,19
2023-03-05T22:10:15.567Z,19
2023-03-05T22:15:15.798Z,19
2023-03-05T22:20:15.805Z,20
2023-03-05T22:25:15.732Z,18
2023-03-05T22:30:15.710Z,17
2023-03-05T22:35:15.806Z,18
2023-03-05T22:40:15.717Z,17
2023-03-05T22:45:15.778Z,15
2023-03-05T22:50:15.742Z,12
2023-03-05T22:55:15.729Z,13
2023-03-05T23:00:15.740Z,12
2023-03-05T23:05:15.732Z,12
2023-03-05T23:10:15.847Z,14
2023-03-05T23:15:15.812Z,15
2023-03-05T23:20:15.803Z,12
2023-03-05T23:25:15.946Z,10
2023-03-05T23:30:15.887Z,11
2023-03-05T23:35:15.807Z,11
2023-03-05T23:40:15.796Z,12
2023-03-05T23:45:15.804Z,14
2023-03-05T23:50:15.844Z,15
2023-03-05T23:55:15.799Z,13
